This is the latest recevied weather packets stored in our database for station/object EA5JJP-10. If no packets are shown the sender has not sent any weather packets the latest 10 day(s).
| Time | Temp. | Humidity | Pressure | Rain* | Wind** | Luminosity | Snow |
|---|---|---|---|---|---|---|---|
| 1777463789 | 20.56° C | 51% | 908 hPa | - | - | - | - |
| 1777462939 | 20.56° C | 50% | 908.2 hPa | - | - | - | - |
| 1777462891 | 20.56° C | 50% | 908.2 hPa | - | - | - | - |
| 1777461993 | 20° C | 53% | 908.2 hPa | - | - | - | - |
| 1777461094 | 21.11° C | 50% | 908.3 hPa | - | - | - | - |
| 1777460196 | 20.56° C | 54% | 908.3 hPa | - | - | - | - |
| 1777459297 | 20.56° C | 53% | 908.4 hPa | - | - | - | - |
| 1777458398 | 18.89° C | 59% | 908.3 hPa | - | - | - | - |
| 1777457501 | 19.44° C | 56% | 908.3 hPa | - | - | - | - |
| 1777456602 | 21.67° C | 49% | 908.2 hPa | - | - | - | - |
| 1777455703 | 22.78° C | 48% | 908.2 hPa | - | - | - | - |
| 1777454804 | 19.44° C | 58% | 908.2 hPa | - | - | - | - |
| 1777453906 | 18.89° C | 60% | 908.1 hPa | - | - | - | - |
| 1777453008 | 17.22° C | 66% | 908 hPa | - | - | - | - |
| 1777452109 | 16.11° C | 67% | 908 hPa | - | - | - | - |
| 1777451210 | 16.11° C | 68% | 907.9 hPa | - | - | - | - |
| 1777450312 | 16.67° C | 67% | 908 hPa | - | - | - | - |
| 1777449413 | 16.11° C | 67% | 907.8 hPa | - | - | - | - |
| 1777448522 | 16.11° C | 66% | 907.8 hPa | - | - | - | - |
| 1777447618 | 16.11° C | 66% | 907.6 hPa | - | - | - | - |
| 1777446719 | 15° C | 68% | 907.4 hPa | - | - | - | - |
| 1777445821 | 13.89° C | 71% | 907.2 hPa | - | - | - | - |
| 1777444922 | 13.89° C | 73% | 907.2 hPa | - | - | - | - |
| 1777444024 | 13.33° C | 77% | 907 hPa | - | - | - | - |
| 1777443126 | 12.22° C | 82% | 906.9 hPa | - | - | - | - |
* Rain since midnight (hover to see other rain measurements)
** Current wind speed in m/s (hover to see current wind gust speed)